createdAt,value
2023-01-20T00:01:52.399Z,95455.41
2023-01-20T00:06:05.619Z,95461.56
2023-01-20T00:10:28.074Z,95461.84
2023-01-20T00:14:40.515Z,95466.25
2023-01-20T00:18:53.640Z,95464.72
2023-01-20T00:23:06.044Z,95471.72
2023-01-20T00:27:28.458Z,95470.56
2023-01-20T00:31:41.037Z,95479.91
2023-01-20T00:35:53.493Z,95476.50
2023-01-20T00:40:07.399Z,95489.25
2023-01-20T00:44:19.837Z,95480.75
2023-01-20T00:48:32.362Z,95483.84
2023-01-20T00:52:44.777Z,95490.78
2023-01-20T00:56:57.153Z,95497.31
2023-01-20T01:01:19.681Z,95499.22
2023-01-20T01:05:43.343Z,95503.47
2023-01-20T01:09:55.741Z,95493.47
2023-01-20T01:14:08.147Z,95491.13
2023-01-20T01:18:20.557Z,95500.91
2023-01-20T01:22:34.066Z,95510.53
2023-01-20T01:26:46.470Z,95501.31
2023-01-20T01:31:04.384Z,95508.97
2023-01-20T01:35:17.143Z,95521.41
2023-01-20T01:39:29.641Z,95527.28
2023-01-20T01:44:06.453Z,95524.94
2023-01-20T01:48:24.437Z,95521.00
2023-01-20T01:52:36.997Z,95525.44
2023-01-20T01:56:51.861Z,95519.94
2023-01-20T02:01:04.602Z,95529.25
2023-01-20T02:05:18.446Z,95536.25
2023-01-20T02:09:31.571Z,95534.34
2023-01-20T02:13:44.459Z,95527.84
2023-01-20T02:18:26.390Z,95532.78
2023-01-20T02:22:50.667Z,95524.84
2023-01-20T02:27:26.031Z,95524.50
2023-01-20T02:32:18.597Z,95536.25
2023-01-20T02:36:43.829Z,95546.78
2023-01-20T02:41:25.658Z,95533.00
2023-01-20T02:45:47.159Z,95546.97
2023-01-20T02:50:14.609Z,95546.28
2023-01-20T02:54:41.919Z,95546.28
2023-01-20T02:59:05.315Z,95550.91
2023-01-20T03:03:25.094Z,95557.13
2023-01-20T03:07:41.195Z,95561.84
2023-01-20T03:12:00.346Z,95561.84
2023-01-20T03:16:17.846Z,95555.38
2023-01-20T03:20:30.301Z,95561.25
2023-01-20T03:24:44.961Z,95574.41
2023-01-20T03:28:58.761Z,95575.59
2023-01-20T03:33:13.263Z,95576.72
2023-01-20T03:37:27.675Z,95575.19
2023-01-20T03:42:15.996Z,95582.53
2023-01-20T03:46:44.100Z,95594.88
2023-01-20T03:51:34.232Z,95601.03
2023-01-20T03:56:08.559Z,95604.50
2023-01-20T04:00:23.853Z,95609.06
2023-01-20T04:04:40.114Z,95612.56
2023-01-20T04:09:00.846Z,95614.00
2023-01-20T04:13:15.665Z,95623.91
2023-01-20T04:17:38.081Z,95611.09
2023-01-20T04:21:58.941Z,95620.41
2023-01-20T04:26:11.388Z,95607.97
2023-01-20T04:30:24.040Z,95627.97
2023-01-20T04:34:36.453Z,95615.97
2023-01-20T04:38:48.859Z,95612.91
2023-01-20T04:43:01.259Z,95627.91
2023-01-20T04:47:23.575Z,95631.56
2023-01-20T04:51:35.988Z,95636.50
2023-01-20T04:55:49.871Z,95648.25
2023-01-20T05:00:02.594Z,95657.34
2023-01-20T05:04:25.111Z,95660.41
2023-01-20T05:08:37.614Z,95654.59
2023-01-20T05:12:50.028Z,95663.00
2023-01-20T05:17:02.580Z,95673.47
2023-01-20T05:21:15.066Z,95667.81
2023-01-20T05:25:27.693Z,95677.41
2023-01-20T05:29:40.070Z,95672.41
2023-01-20T05:33:52.562Z,95693.91
2023-01-20T05:38:05.141Z,95701.00
2023-01-20T05:42:17.576Z,95699.03
2023-01-20T05:46:30.086Z,95695.94
2023-01-20T05:50:53.466Z,95709.94
2023-01-20T05:55:06.646Z,95717.75
2023-01-20T05:59:19.243Z,95718.16
2023-01-20T06:03:31.742Z,95716.28
2023-01-20T06:07:44.323Z,95723.22
2023-01-20T06:11:56.723Z,95727.09
2023-01-20T06:16:09.153Z,95723.22
2023-01-20T06:20:21.888Z,95735.47
2023-01-20T06:24:34.357Z,95740.19
2023-01-20T06:28:46.795Z,95735.94
2023-01-20T06:32:59.215Z,95748.31
2023-01-20T06:37:12.061Z,95749.44
2023-01-20T06:41:34.677Z,95768.00
2023-01-20T06:45:47.071Z,95763.81
2023-01-20T06:49:59.504Z,95771.88
2023-01-20T06:54:11.954Z,95778.50
2023-01-20T06:58:26.935Z,95782.66
2023-01-20T07:02:39.371Z,95788.41
2023-01-20T07:06:51.804Z,95798.50
2023-01-20T07:11:04.194Z,95800.09
2023-01-20T07:15:16.911Z,95798.13
2023-01-20T07:19:29.465Z,95803.16
2023-01-20T07:23:41.978Z,95814.72
2023-01-20T07:27:54.410Z,95805.84
2023-01-20T07:32:06.910Z,95827.84
2023-01-20T07:36:29.391Z,95826.25
2023-01-20T07:40:41.846Z,95828.47
2023-01-20T07:44:56.425Z,95836.50
2023-01-20T07:49:10.700Z,95837.59
2023-01-20T07:53:24.562Z,95846.84
2023-01-20T07:57:36.971Z,95852.41
2023-01-20T08:01:49.585Z,95846.81
2023-01-20T08:06:12.172Z,95858.28
2023-01-20T08:10:24.784Z,95866.06
2023-01-20T08:14:37.950Z,95855.69
2023-01-20T08:18:53.621Z,95865.66
2023-01-20T08:23:06.009Z,95880.50
2023-01-20T08:27:18.495Z,95878.00
2023-01-20T08:31:31.466Z,95897.41
2023-01-20T08:35:54.010Z,95896.16
2023-01-20T08:40:11.834Z,95902.78
2023-01-20T08:44:24.321Z,95893.97
2023-01-20T08:48:38.387Z,95915.06
2023-01-20T08:52:50.858Z,95916.03
2023-01-20T08:57:03.730Z,95916.34
2023-01-20T09:01:20.300Z,95929.06
2023-01-20T09:05:37.208Z,95923.88
2023-01-20T09:09:49.695Z,95929.78
2023-01-20T09:14:03.527Z,95943.50
2023-01-20T09:18:18.010Z,95938.06
2023-01-20T09:22:30.509Z,95954.75
2023-01-20T09:26:42.997Z,95938.75
2023-01-20T09:31:00.413Z,95954.28
2023-01-20T09:35:13.185Z,95951.34
2023-01-20T09:39:45.074Z,95962.38
2023-01-20T09:44:19.918Z,95975.09
2023-01-20T09:49:31.530Z,95973.34
2023-01-20T09:54:01.142Z,95974.94
2023-01-20T09:58:25.786Z,95974.28
2023-01-20T10:02:40.166Z,95963.06
2023-01-20T10:07:07.868Z,95977.28
2023-01-20T10:11:23.087Z,95974.06
2023-01-20T10:15:45.843Z,95987.38
2023-01-20T10:20:38.566Z,95982.31
2023-01-20T10:25:13.780Z,95980.31
2023-01-20T10:29:39.736Z,95983.81
2023-01-20T10:33:55.999Z,95982.78
2023-01-20T10:38:30.950Z,95985.28
2023-01-20T10:42:50.158Z,95986.06
2023-01-20T10:47:30.363Z,95984.34
2023-01-20T10:51:51.399Z,95982.13
2023-01-20T10:56:32.737Z,95982.50
2023-01-20T11:00:56.415Z,95979.03
2023-01-20T11:05:23.375Z,95986.41
2023-01-20T11:09:38.478Z,95988.47
2023-01-20T11:13:54.178Z,95982.22
2023-01-20T11:18:15.784Z,95986.09
2023-01-20T11:22:36.213Z,95987.47
2023-01-20T11:26:48.738Z,95990.59
2023-01-20T11:31:01.289Z,95993.41
2023-01-20T11:35:25.886Z,95982.28
2023-01-20T11:39:50.374Z,95978.00
2023-01-20T11:44:05.665Z,95994.13
2023-01-20T11:48:22.370Z,95991.88
2023-01-20T11:52:44.498Z,95993.28
2023-01-20T11:57:04.010Z,95997.28
2023-01-20T12:01:30.988Z,95994.25
2023-01-20T12:06:05.814Z,96006.75
2023-01-20T12:10:25.269Z,95986.25
2023-01-20T12:15:10.917Z,95995.16
2023-01-20T12:19:33.405Z,95989.94
2023-01-20T12:23:58.934Z,95971.53
2023-01-20T12:28:56.110Z,95993.78
2023-01-20T12:33:34.331Z,96001.91
2023-01-20T12:38:01.196Z,95999.00
2023-01-20T12:42:44.589Z,96002.63
2023-01-20T12:47:17.393Z,96008.97
2023-01-20T12:52:17.475Z,95987.56
2023-01-20T12:57:05.281Z,96014.28
2023-01-20T13:01:41.849Z,96009.38
2023-01-20T13:06:24.065Z,96011.16
2023-01-20T13:11:04.544Z,96013.44
2023-01-20T13:15:48.583Z,96009.94
2023-01-20T13:20:06.839Z,96021.59
2023-01-20T13:24:29.862Z,96019.72
2023-01-20T13:28:56.019Z,96034.03
2023-01-20T13:33:41.909Z,96031.25
2023-01-20T13:37:57.497Z,96041.75
2023-01-20T13:42:30.219Z,96049.13
2023-01-20T13:46:46.511Z,96035.91
2023-01-20T13:51:17.662Z,96053.00
2023-01-20T13:55:53.207Z,96054.31
2023-01-20T14:00:14.062Z,96064.88
2023-01-20T14:04:26.560Z,96076.13
2023-01-20T14:08:41.931Z,96050.28
2023-01-20T14:13:11.334Z,96065.50
2023-01-20T14:17:25.515Z,96073.78
2023-01-20T14:21:43.428Z,96057.53
2023-01-20T14:26:24.102Z,96084.44
2023-01-20T14:30:36.659Z,96088.81
2023-01-20T14:34:49.642Z,96094.13
2023-01-20T14:39:04.421Z,96094.50
2023-01-20T14:43:23.347Z,96102.91
2023-01-20T14:47:36.084Z,96067.59
2023-01-20T14:51:50.386Z,96111.78
2023-01-20T14:56:08.305Z,96118.03
2023-01-20T15:00:28.339Z,96123.41
2023-01-20T15:04:40.843Z,96117.34
2023-01-20T15:09:06.036Z,96129.59
2023-01-20T15:13:28.466Z,96123.09
2023-01-20T15:18:22.548Z,96130.81
2023-01-20T15:22:35.046Z,96130.50
2023-01-20T15:26:50.452Z,96138.66
2023-01-20T15:31:03.270Z,96135.56
2023-01-20T15:35:21.798Z,96152.22
2023-01-20T15:39:35.645Z,96126.72
2023-01-20T15:43:50.137Z,96148.34
2023-01-20T15:48:05.954Z,96159.19
2023-01-20T15:52:18.381Z,96156.53
2023-01-20T15:56:31.763Z,96152.97
2023-01-20T16:00:44.518Z,96157.31
2023-01-20T16:04:56.982Z,96149.56
2023-01-20T16:09:26.250Z,96173.91
2023-01-20T16:13:48.584Z,96185.56
2023-01-20T16:18:01.033Z,96184.03
2023-01-20T16:22:14.417Z,96184.44
2023-01-20T16:26:29.935Z,96193.31
2023-01-20T16:30:54.877Z,96178.25
2023-01-20T16:35:20.374Z,96183.34
2023-01-20T16:39:34.046Z,96190.56
2023-01-20T16:43:46.627Z,96197.63
2023-01-20T16:47:59.160Z,96194.91
2023-01-20T16:52:12.710Z,96197.59
2023-01-20T16:56:28.798Z,96212.75
2023-01-20T17:00:42.136Z,96212.00
2023-01-20T17:04:54.600Z,96210.81
2023-01-20T17:09:07.037Z,96213.84
2023-01-20T17:13:19.487Z,96216.59
2023-01-20T17:17:31.927Z,96233.25
2023-01-20T17:21:44.930Z,96225.50
2023-01-20T17:25:57.414Z,96229.03
2023-01-20T17:30:11.003Z,96215.09
2023-01-20T17:34:23.515Z,96227.91
2023-01-20T17:38:36.587Z,96237.94
2023-01-20T17:42:49.033Z,96232.91
2023-01-20T17:47:01.520Z,96245.78
2023-01-20T17:51:23.514Z,96263.94
2023-01-20T17:55:36.532Z,96265.13
2023-01-20T17:59:49.214Z,96267.47
2023-01-20T18:04:05.074Z,96262.81
2023-01-20T18:08:25.023Z,96267.91
2023-01-20T18:12:37.543Z,96269.44
2023-01-20T18:16:50.856Z,96268.66
2023-01-20T18:21:12.695Z,96276.03
2023-01-20T18:25:25.167Z,96284.16
2023-01-20T18:29:37.695Z,96285.72
2023-01-20T18:33:52.562Z,96290.78
2023-01-20T18:38:05.033Z,96282.25
2023-01-20T18:42:17.469Z,96295.06
2023-01-20T18:46:30.121Z,96294.25
2023-01-20T18:50:53.728Z,96297.78
2023-01-20T18:55:06.997Z,96302.41
2023-01-20T18:59:19.495Z,96294.66
2023-01-20T19:03:33.550Z,96304.34
2023-01-20T19:07:50.609Z,96304.38
2023-01-20T19:12:03.159Z,96297.00
2023-01-20T19:16:15.867Z,96307.09
2023-01-20T19:20:28.415Z,96314.44
2023-01-20T19:24:40.843Z,96308.25
2023-01-20T19:29:01.386Z,96308.63
2023-01-20T19:33:23.860Z,96305.16
2023-01-20T19:37:36.362Z,96316.00
2023-01-20T19:48:03.939Z,96321.81
2023-01-20T19:52:36.898Z,96325.69
2023-01-20T19:57:09.925Z,96326.84
2023-01-20T20:01:43.077Z,96336.91
2023-01-20T20:06:34.839Z,96343.50
2023-01-20T20:11:11.593Z,96331.50
2023-01-20T20:15:44.718Z,96345.06
2023-01-20T20:19:57.170Z,96336.53
2023-01-20T20:24:13.525Z,96346.22
2023-01-20T20:28:29.340Z,96350.50
2023-01-20T20:32:42.874Z,96345.03
2023-01-20T20:37:05.503Z,96353.16
2023-01-20T20:41:18.557Z,96354.72
2023-01-20T20:45:31.600Z,96353.53
2023-01-20T20:49:45.232Z,96347.72
2023-01-20T20:53:59.417Z,96361.28
2023-01-20T20:58:11.888Z,96351.56
2023-01-20T21:02:25.506Z,96358.50
2023-01-20T21:06:37.994Z,96357.38
2023-01-20T21:10:50.415Z,96365.13
2023-01-20T21:15:05.016Z,96357.41
2023-01-20T21:19:17.780Z,96362.44
2023-01-20T21:23:31.347Z,96358.53
2023-01-20T21:27:44.288Z,96359.31
2023-01-20T21:31:56.948Z,96367.41
2023-01-20T21:36:10.807Z,96367.84
2023-01-20T21:40:23.407Z,96359.66
2023-01-20T21:44:37.294Z,96378.66
2023-01-20T21:49:08.985Z,96360.88
2023-01-20T21:53:21.403Z,96358.94
2023-01-20T21:57:34.203Z,96384.13
2023-01-20T22:01:46.753Z,96381.78
2023-01-20T22:05:59.166Z,96382.63
2023-01-20T22:10:12.369Z,96383.38
2023-01-20T22:14:24.800Z,96388.78
2023-01-20T22:18:38.453Z,96389.97
2023-01-20T22:22:50.863Z,96382.59
2023-01-20T22:27:03.467Z,96390.38
2023-01-20T22:31:26.087Z,96385.69
2023-01-20T22:35:38.511Z,96390.31
2023-01-20T22:39:52.186Z,96394.97
2023-01-20T22:44:15.100Z,96395.72
2023-01-20T22:48:27.615Z,96397.31
2023-01-20T22:52:40.340Z,96398.44
2023-01-20T22:56:52.738Z,96398.41
2023-01-20T23:01:06.287Z,96415.81
2023-01-20T23:05:18.774Z,96402.63
2023-01-20T23:09:31.271Z,96413.84
2023-01-20T23:13:44.656Z,96419.22
2023-01-20T23:17:57.073Z,96413.44
2023-01-20T23:22:09.518Z,96404.06
2023-01-20T23:26:25.258Z,96418.03
2023-01-20T23:30:38.509Z,96410.72
2023-01-20T23:34:50.941Z,96404.88
2023-01-20T23:39:03.400Z,96402.94
2023-01-20T23:43:16.049Z,96399.47
2023-01-20T23:47:38.052Z,96383.94
2023-01-20T23:51:50.464Z,96404.16
2023-01-20T23:56:08.682Z,96418.03
